TimeMST,TemperatureF,Dew PointF,Humidity,Sea Level PressureIn,VisibilityMPH,Wind Direction,Wind SpeedMPH,Gust SpeedMPH,PrecipitationIn,Events,Conditions,WindDirDegrees,DateUTC
12:15 AM,24.8,17.6,74,-9999,10.0,West,13.8,20.7,N/A,,Clear,270,2013-01-08 07:15:00
12:35 AM,23.0,17.6,80,-9999,10.0,West,13.8,24.2,N/A,,Clear,260,2013-01-08 07:35:00
12:55 AM,23.0,17.6,80,-9999,10.0,WSW,15.0,-,N/A,,Clear,250,2013-01-08 07:55:00
1:15 AM,21.2,17.6,86,-9999,10.0,West,11.5,18.4,N/A,,Clear,260,2013-01-08 08:15:00
1:35 AM,21.2,17.6,86,-9999,10.0,West,20.7,25.3,N/A,,Clear,260,2013-01-08 08:35:00
1:55 AM,21.2,17.6,86,-9999,10.0,WSW,16.1,-,N/A,,Clear,250,2013-01-08 08:55:00
2:15 AM,17.6,14.0,86,-9999,10.0,WSW,13.8,18.4,N/A,,Clear,250,2013-01-08 09:15:00
2:35 AM,17.6,14.0,86,-9999,10.0,WSW,15.0,-,N/A,,Scattered Clouds,250,2013-01-08 09:35:00
2:55 AM,15.8,14.0,93,-9999,10.0,SW,11.5,-,N/A,,Mostly Cloudy,230,2013-01-08 09:55:00
3:15 AM,14.0,12.2,93,-9999,5.0,SW,16.1,20.7,N/A,,Scattered Clouds,230,2013-01-08 10:15:00
3:35 AM,14.0,14.0,100,-9999,0.2,SW,17.3,-,N/A,Fog,Light Freezing Fog,220,2013-01-08 10:35:00
3:55 AM,14.0,12.2,93,-9999,0.5,SW,18.4,26.5,N/A,Fog,Light Freezing Fog,220,2013-01-08 10:55:00
4:15 AM,14.0,14.0,100,-9999,0.2,SW,17.3,24.2,N/A,Fog,Light Freezing Fog,220,2013-01-08 11:15:00
4:35 AM,14.0,14.0,100,-9999,1.2,SW,18.4,23.0,N/A,,Mist,220,2013-01-08 11:35:00
4:55 AM,15.8,14.0,93,-9999,7.0,SW,18.4,23.0,N/A,,Unknown,230,2013-01-08 11:55:00
5:15 AM,15.8,14.0,93,-9999,3.0,SW,19.6,24.2,N/A,,Mist,230,2013-01-08 12:15:00
5:35 AM,17.6,17.6,100,-9999,10.0,WSW,15.0,20.7,N/A,,Overcast,250,2013-01-08 12:35:00
5:55 AM,19.4,17.6,93,-9999,10.0,West,17.3,26.5,N/A,,Overcast,260,2013-01-08 12:55:00
6:15 AM,19.4,17.6,93,-9999,10.0,West,12.7,23.0,N/A,,Overcast,260,2013-01-08 13:15:00
6:35 AM,19.4,17.6,93,-9999,10.0,West,12.7,-,N/A,,Overcast,260,2013-01-08 13:35:00
6:55 AM,21.2,15.8,80,-9999,10.0,West,17.3,24.2,N/A,,Overcast,260,2013-01-08 13:55:00
7:15 AM,19.4,15.8,86,-9999,10.0,West,11.5,19.6,N/A,,Overcast,260,2013-01-08 14:15:00
7:35 AM,15.8,14.0,93,-9999,10.0,East,4.6,-,N/A,,Overcast,90,2013-01-08 14:35:00
7:55 AM,17.6,14.0,86,-9999,10.0,WSW,10.4,16.1,N/A,,Overcast,250,2013-01-08 14:55:00
8:15 AM,17.6,14.0,86,-9999,10.0,South,6.9,-,N/A,,Overcast,180,2013-01-08 15:15:00
8:35 AM,19.4,15.8,86,-9999,10.0,WSW,9.2,-,N/A,,Overcast,250,2013-01-08 15:35:00
8:55 AM,21.2,15.8,80,-9999,10.0,WSW,19.6,27.6,N/A,,Overcast,250,2013-01-08 15:55:00
9:15 AM,23.0,17.6,80,-9999,10.0,West,17.3,24.2,N/A,,Overcast,260,2013-01-08 16:15:00
9:35 AM,23.0,17.6,80,-9999,10.0,WSW,21.9,29.9,N/A,,Overcast,250,2013-01-08 16:35:00
9:55 AM,23.0,17.6,80,-9999,10.0,West,15.0,27.6,N/A,,Scattered Clouds,260,2013-01-08 16:55:00
10:15 AM,21.2,17.6,86,-9999,10.0,West,16.1,20.7,N/A,Snow,Light Snow,260,2013-01-08 17:15:00
10:35 AM,21.2,19.4,93,-9999,4.0,WSW,19.6,26.5,N/A,Snow,Light Snow,250,2013-01-08 17:35:00
10:55 AM,23.0,19.4,86,-9999,7.0,WSW,23.0,28.8,N/A,Snow,Light Snow,250,2013-01-08 17:55:00
11:15 AM,23.0,19.4,86,-9999,7.0,WSW,18.4,26.5,N/A,Snow,Light Snow,250,2013-01-08 18:15:00
11:35 AM,23.0,19.4,86,-9999,7.0,WSW,15.0,21.9,N/A,Snow,Light Snow,240,2013-01-08 18:35:00
12:15 PM,23.0,21.2,93,-9999,10.0,WSW,18.4,21.9,N/A,Snow,Light Snow,240,2013-01-08 19:15:00
12:35 PM,26.6,19.4,74,-9999,10.0,WSW,19.6,25.3,N/A,,Clear,250,2013-01-08 19:35:00
12:55 PM,24.8,19.4,80,-9999,10.0,WSW,16.1,23.0,N/A,,Clear,240,2013-01-08 19:55:00
1:15 PM,24.8,19.4,80,-9999,7.0,WSW,18.4,23.0,N/A,Snow,Light Snow,250,2013-01-08 20:15:00
1:35 PM,24.8,19.4,80,-9999,10.0,West,13.8,26.5,N/A,,Scattered Clouds,260,2013-01-08 20:35:00
1:55 PM,26.6,19.4,74,-9999,10.0,West,10.4,19.6,N/A,,Clear,270,2013-01-08 20:55:00
2:15 PM,26.6,19.4,74,-9999,5.0,WSW,25.3,33.4,N/A,,Haze,250,2013-01-08 21:15:00
2:35 PM,26.6,19.4,74,-9999,10.0,WSW,24.2,33.4,N/A,,Clear,250,2013-01-08 21:35:00
2:55 PM,26.6,19.4,74,-9999,10.0,WSW,16.1,25.3,N/A,,Clear,250,2013-01-08 21:55:00
3:15 PM,26.6,19.4,74,-9999,10.0,WSW,13.8,18.4,N/A,,Clear,250,2013-01-08 22:15:00
3:35 PM,26.6,19.4,74,-9999,10.0,SW,10.4,17.3,N/A,,Clear,230,2013-01-08 22:35:00
3:55 PM,23.0,19.4,86,-9999,10.0,SW,15.0,-,N/A,,Scattered Clouds,230,2013-01-08 22:55:00
4:15 PM,23.0,19.4,86,-9999,10.0,WSW,13.8,-,N/A,,Scattered Clouds,240,2013-01-08 23:15:00
4:35 PM,23.0,19.4,86,-9999,10.0,WSW,11.5,20.7,N/A,Snow,Light Snow,250,2013-01-08 23:35:00
4:55 PM,23.0,19.4,86,-9999,7.0,WSW,9.2,-,N/A,Snow,Light Snow,250,2013-01-08 23:55:00
5:35 PM,23.0,19.4,86,-9999,4.0,WSW,24.2,36.8,N/A,,Scattered Clouds,250,2013-01-09 00:35:00
5:55 PM,23.0,19.4,86,-9999,7.0,West,24.2,33.4,N/A,Snow,Light Snow,260,2013-01-09 00:55:00
6:15 PM,23.0,19.4,86,-9999,10.0,West,24.2,36.8,N/A,,Clear,260,2013-01-09 01:15:00
6:55 PM,23.0,19.4,86,-9999,10.0,WSW,21.9,29.9,N/A,,Clear,250,2013-01-09 01:55:00
7:15 PM,23.0,17.6,80,-9999,10.0,West,17.3,21.9,N/A,,Clear,260,2013-01-09 02:15:00
7:35 PM,24.8,17.6,74,-9999,10.0,WSW,18.4,27.6,N/A,,Clear,250,2013-01-09 02:35:00
7:55 PM,24.8,17.6,74,-9999,10.0,West,19.6,28.8,N/A,,Clear,260,2013-01-09 02:55:00
8:15 PM,23.0,19.4,86,-9999,10.0,WSW,19.6,27.6,N/A,,Clear,250,2013-01-09 03:15:00
8:35 PM,21.2,19.4,93,-9999,10.0,WSW,15.0,23.0,N/A,,Clear,240,2013-01-09 03:35:00
8:55 PM,21.2,19.4,93,-9999,10.0,WSW,16.1,20.7,N/A,,Clear,250,2013-01-09 03:55:00
9:15 PM,21.2,19.4,93,-9999,10.0,WSW,19.6,25.3,N/A,,Mostly Cloudy,240,2013-01-09 04:15:00
9:35 PM,21.2,19.4,93,-9999,10.0,WSW,18.4,26.5,N/A,,Scattered Clouds,240,2013-01-09 04:35:00
9:55 PM,23.0,19.4,86,-9999,10.0,WSW,13.8,24.2,N/A,,Clear,240,2013-01-09 04:55:00
10:15 PM,23.0,19.4,86,-9999,10.0,SW,11.5,19.6,N/A,,Clear,220,2013-01-09 05:15:00
10:35 PM,23.0,19.4,86,-9999,10.0,SW,15.0,23.0,N/A,,Scattered Clouds,230,2013-01-09 05:35:00
10:55 PM,23.0,19.4,86,-9999,10.0,SW,16.1,-,N/A,,Clear,220,2013-01-09 05:55:00
11:15 PM,23.0,19.4,86,-9999,10.0,SW,16.1,21.9,N/A,,Clear,220,2013-01-09 06:15:00
11:35 PM,23.0,19.4,86,-9999,10.0,SSW,13.8,-,N/A,,Clear,210,2013-01-09 06:35:00